sensor_id;sensor_type;location;lat;lon;timestamp;pressure;altitude;pressure_sealevel;temperature;humidity
13732;BME280;6937;56.096;12.664;2023-05-23T00:00:57;101283.69;;;14.91;100.00
13732;BME280;6937;56.096;12.664;2023-05-23T00:03:26;101264.25;;;14.87;100.00
13732;BME280;6937;56.096;12.664;2023-05-23T00:05:51;101273.31;;;14.86;100.00
13732;BME280;6937;56.096;12.664;2023-05-23T00:08:17;101274.53;;;14.82;100.00
13732;BME280;6937;56.096;12.664;2023-05-23T00:10:43;101265.38;;;14.63;100.00
13732;BME280;6937;56.096;12.664;2023-05-23T00:13:09;101264.94;;;14.46;100.00
13732;BME280;6937;56.096;12.664;2023-05-23T00:15:40;101256.75;;;14.37;100.00
13732;BME280;6937;56.096;12.664;2023-05-23T00:18:09;101245.72;;;14.29;100.00
13732;BME280;6937;56.096;12.664;2023-05-23T00:20:38;101241.94;;;14.20;100.00
13732;BME280;6937;56.096;12.664;2023-05-23T00:23:10;101229.13;;;14.13;100.00
13732;BME280;6937;56.096;12.664;2023-05-23T00:25:42;101233.28;;;14.06;100.00
13732;BME280;6937;56.096;12.664;2023-05-23T00:28:13;101213.81;;;13.91;100.00
13732;BME280;6937;56.096;12.664;2023-05-23T00:30:38;101215.41;;;13.82;100.00
13732;BME280;6937;56.096;12.664;2023-05-23T00:33:04;101216.13;;;13.73;100.00
13732;BME280;6937;56.096;12.664;2023-05-23T00:35:29;101205.72;;;13.69;100.00
13732;BME280;6937;56.096;12.664;2023-05-23T00:37:55;101190.00;;;13.64;100.00
13732;BME280;6937;56.096;12.664;2023-05-23T00:40:21;101192.44;;;13.67;100.00
13732;BME280;6937;56.096;12.664;2023-05-23T00:42:47;101186.31;;;13.65;100.00
13732;BME280;6937;56.096;12.664;2023-05-23T00:45:13;101183.25;;;13.59;100.00
13732;BME280;6937;56.096;12.664;2023-05-23T00:47:39;101181.44;;;13.59;100.00
13732;BME280;6937;56.096;12.664;2023-05-23T00:50:10;101176.56;;;13.53;100.00
13732;BME280;6937;56.096;12.664;2023-05-23T00:52:37;101175.53;;;13.43;100.00
13732;BME280;6937;56.096;12.664;2023-05-23T00:55:03;101166.38;;;13.34;100.00
13732;BME280;6937;56.096;12.664;2023-05-23T00:57:29;101153.78;;;13.35;100.00
13732;BME280;6937;56.096;12.664;2023-05-23T00:59:54;101154.28;;;13.29;100.00
13732;BME280;6937;56.096;12.664;2023-05-23T01:02:20;101156.59;;;13.22;100.00
13732;BME280;6937;56.096;12.664;2023-05-23T01:04:48;101152.44;;;13.18;100.00
13732;BME280;6937;56.096;12.664;2023-05-23T01:07:18;101148.28;;;13.14;100.00
13732;BME280;6937;56.096;12.664;2023-05-23T01:09:44;101137.78;;;13.11;100.00
13732;BME280;6937;56.096;12.664;2023-05-23T01:12:21;101121.13;;;13.06;100.00
13732;BME280;6937;56.096;12.664;2023-05-23T01:17:33;101119.28;;;12.95;100.00
13732;BME280;6937;56.096;12.664;2023-05-23T01:20:10;101127.22;;;12.97;100.00
13732;BME280;6937;56.096;12.664;2023-05-23T01:28:06;101101.94;;;12.88;100.00
13732;BME280;6937;56.096;12.664;2023-05-23T01:30:38;101095.00;;;12.86;100.00
13732;BME280;6937;56.096;12.664;2023-05-23T01:33:05;101097.53;;;12.87;100.00
13732;BME280;6937;56.096;12.664;2023-05-23T01:35:32;101092.16;;;12.87;100.00
13732;BME280;6937;56.096;12.664;2023-05-23T01:37:57;101095.97;;;12.85;100.00
13732;BME280;6937;56.096;12.664;2023-05-23T01:40:24;101090.69;;;12.83;100.00
13732;BME280;6937;56.096;12.664;2023-05-23T01:42:53;101079.97;;;12.83;100.00
13732;BME280;6937;56.096;12.664;2023-05-23T01:45:22;101080.56;;;12.76;100.00
13732;BME280;6937;56.096;12.664;2023-05-23T01:47:49;101071.41;;;12.67;100.00
13732;BME280;6937;56.096;12.664;2023-05-23T01:50:15;101069.56;;;12.68;100.00
13732;BME280;6937;56.096;12.664;2023-05-23T01:52:41;101074.69;;;12.71;100.00
13732;BME280;6937;56.096;12.664;2023-05-23T01:55:08;101074.69;;;12.71;100.00
13732;BME280;6937;56.096;12.664;2023-05-23T01:57:35;101064.56;;;12.63;100.00
13732;BME280;6937;56.096;12.664;2023-05-23T02:00:07;101057.94;;;12.56;100.00
13732;BME280;6937;56.096;12.664;2023-05-23T02:02:35;101059.97;;;12.52;100.00
13732;BME280;6937;56.096;12.664;2023-05-23T02:05:00;101060.59;;;12.56;100.00
13732;BME280;6937;56.096;12.664;2023-05-23T02:07:26;101054.41;;;12.55;100.00
13732;BME280;6937;56.096;12.664;2023-05-23T02:09:51;101065.25;;;12.54;100.00
13732;BME280;6937;56.096;12.664;2023-05-23T02:12:17;101067.19;;;12.52;100.00
13732;BME280;6937;56.096;12.664;2023-05-23T02:14:42;101054.75;;;12.51;100.00
13732;BME280;6937;56.096;12.664;2023-05-23T02:17:08;101057.81;;;12.57;100.00
13732;BME280;6937;56.096;12.664;2023-05-23T02:19:36;101058.69;;;12.58;100.00
13732;BME280;6937;56.096;12.664;2023-05-23T02:22:02;101054.75;;;12.51;100.00
13732;BME280;6937;56.096;12.664;2023-05-23T02:24:28;101056.34;;;12.53;100.00
13732;BME280;6937;56.096;12.664;2023-05-23T02:26:53;101058.44;;;12.61;100.00
13732;BME280;6937;56.096;12.664;2023-05-23T02:29:19;101062.59;;;12.65;100.00
13732;BME280;6937;56.096;12.664;2023-05-23T02:31:44;101062.72;;;12.64;100.00
13732;BME280;6937;56.096;12.664;2023-05-23T02:34:10;101061.97;;;12.62;100.00
13732;BME280;6937;56.096;12.664;2023-05-23T02:36:35;101061.03;;;12.63;100.00
13732;BME280;6937;56.096;12.664;2023-05-23T02:39:02;101066.38;;;12.63;100.00
13732;BME280;6937;56.096;12.664;2023-05-23T02:41:27;101068.59;;;12.69;100.00
13732;BME280;6937;56.096;12.664;2023-05-23T02:43:52;101067.38;;;12.73;100.00
13732;BME280;6937;56.096;12.664;2023-05-23T02:46:18;101068.84;;;12.77;100.00
13732;BME280;6937;56.096;12.664;2023-05-23T02:48:43;101053.59;;;12.66;100.00
13732;BME280;6937;56.096;12.664;2023-05-23T02:51:09;101059.69;;;12.68;100.00
13732;BME280;6937;56.096;12.664;2023-05-23T02:53:34;101055.78;;;12.72;100.00
13732;BME280;6937;56.096;12.664;2023-05-23T02:56:00;101045.31;;;12.69;100.00
13732;BME280;6937;56.096;12.664;2023-05-23T02:58:25;101055.41;;;12.66;100.00
13732;BME280;6937;56.096;12.664;2023-05-23T03:00:51;101045.66;;;12.65;100.00
13732;BME280;6937;56.096;12.664;2023-05-23T03:03:16;101044.53;;;12.56;100.00
13732;BME280;6937;56.096;12.664;2023-05-23T03:05:42;101035.75;;;12.54;100.00
13732;BME280;6937;56.096;12.664;2023-05-23T03:08:07;101042.06;;;12.53;100.00
13732;BME280;6937;56.096;12.664;2023-05-23T03:10:33;101032.69;;;12.47;100.00
13732;BME280;6937;56.096;12.664;2023-05-23T03:12:58;101043.13;;;12.39;100.00
13732;BME280;6937;56.096;12.664;2023-05-23T03:15:23;101032.75;;;12.35;100.00
13732;BME280;6937;56.096;12.664;2023-05-23T03:17:49;101040.56;;;12.38;100.00
13732;BME280;6937;56.096;12.664;2023-05-23T03:20:14;101035.34;;;12.36;100.00
13732;BME280;6937;56.096;12.664;2023-05-23T03:22:40;101026.44;;;12.36;100.00
13732;BME280;6937;56.096;12.664;2023-05-23T03:25:08;101028.34;;;12.34;100.00
13732;BME280;6937;56.096;12.664;2023-05-23T03:27:33;101015.94;;;12.33;100.00
13732;BME280;6937;56.096;12.664;2023-05-23T03:29:59;101021.78;;;12.38;100.00
13732;BME280;6937;56.096;12.664;2023-05-23T03:32:24;101013.25;;;12.33;100.00
13732;BME280;6937;56.096;12.664;2023-05-23T03:34:50;101015.09;;;12.32;100.00
13732;BME280;6937;56.096;12.664;2023-05-23T03:37:15;101015.56;;;12.37;100.00
13732;BME280;6937;56.096;12.664;2023-05-23T03:39:40;101009.38;;;12.37;100.00
13732;BME280;6937;56.096;12.664;2023-05-23T03:42:06;101013.31;;;12.44;100.00
13732;BME280;6937;56.096;12.664;2023-05-23T03:44:31;101014.31;;;12.54;100.00
13732;BME280;6937;56.096;12.664;2023-05-23T03:46:57;101011.63;;;12.54;100.00
13732;BME280;6937;56.096;12.664;2023-05-23T03:49:22;101016.88;;;12.55;100.00
13732;BME280;6937;56.096;12.664;2023-05-23T03:51:48;101016.25;;;12.52;100.00
13732;BME280;6937;56.096;12.664;2023-05-23T03:54:13;101009.91;;;12.53;100.00
13732;BME280;6937;56.096;12.664;2023-05-23T03:56:38;101010.75;;;12.53;100.00
13732;BME280;6937;56.096;12.664;2023-05-23T03:59:04;101004.31;;;12.56;100.00
13732;BME280;6937;56.096;12.664;2023-05-23T04:01:29;100993.38;;;12.59;100.00
13732;BME280;6937;56.096;12.664;2023-05-23T04:03:54;101007.84;;;12.56;100.00
13732;BME280;6937;56.096;12.664;2023-05-23T04:06:20;100996.16;;;12.57;100.00
13732;BME280;6937;56.096;12.664;2023-05-23T04:08:46;100998.84;;;12.57;100.00
13732;BME280;6937;56.096;12.664;2023-05-23T04:11:12;100991.13;;;12.53;100.00
13732;BME280;6937;56.096;12.664;2023-05-23T04:13:38;101000.91;;;12.54;100.00
13732;BME280;6937;56.096;12.664;2023-05-23T04:16:04;100994.94;;;12.62;100.00
13732;BME280;6937;56.096;12.664;2023-05-23T04:18:30;100991.06;;;12.66;100.00
13732;BME280;6937;56.096;12.664;2023-05-23T04:20:58;100994.88;;;12.74;100.00
13732;BME280;6937;56.096;12.664;2023-05-23T04:23:23;100980.09;;;12.80;100.00
13732;BME280;6937;56.096;12.664;2023-05-23T04:25:48;100983.13;;;12.75;100.00
13732;BME280;6937;56.096;12.664;2023-05-23T04:28:15;100972.66;;;12.72;100.00
13732;BME280;6937;56.096;12.664;2023-05-23T04:30:41;100958.78;;;12.67;100.00
13732;BME280;6937;56.096;12.664;2023-05-23T04:33:07;100962.19;;;12.69;100.00
13732;BME280;6937;56.096;12.664;2023-05-23T04:35:32;100954.03;;;12.71;100.00
13732;BME280;6937;56.096;12.664;2023-05-23T04:37:58;100952.69;;;12.76;100.00
13732;BME280;6937;56.096;12.664;2023-05-23T04:40:24;100948.88;;;12.79;100.00
13732;BME280;6937;56.096;12.664;2023-05-23T04:42:49;100949.75;;;12.79;100.00
13732;BME280;6937;56.096;12.664;2023-05-23T04:45:17;100944.03;;;12.84;100.00
13732;BME280;6937;56.096;12.664;2023-05-23T04:47:44;100936.47;;;12.89;100.00
13732;BME280;6937;56.096;12.664;2023-05-23T04:50:10;100937.94;;;12.93;100.00
13732;BME280;6937;56.096;12.664;2023-05-23T04:52:35;100943.78;;;12.98;100.00
13732;BME280;6937;56.096;12.664;2023-05-23T04:55:01;100937.47;;;13.10;100.00
13732;BME280;6937;56.096;12.664;2023-05-23T04:57:26;100937.97;;;13.15;100.00
13732;BME280;6937;56.096;12.664;2023-05-23T04:59:52;100953.31;;;13.24;100.00
13732;BME280;6937;56.096;12.664;2023-05-23T05:02:17;100940.38;;;13.29;100.00
13732;BME280;6937;56.096;12.664;2023-05-23T05:04:43;100949.53;;;13.38;100.00
13732;BME280;6937;56.096;12.664;2023-05-23T05:07:08;100935.88;;;13.41;100.00
13732;BME280;6937;56.096;12.664;2023-05-23T05:09:34;100933.63;;;13.46;100.00
13732;BME280;6937;56.096;12.664;2023-05-23T05:11:59;100936.56;;;13.54;100.00
13732;BME280;6937;56.096;12.664;2023-05-23T05:14:25;100932.97;;;13.65;100.00
13732;BME280;6937;56.096;12.664;2023-05-23T05:16:51;100935.88;;;13.73;100.00
13732;BME280;6937;56.096;12.664;2023-05-23T05:19:16;100938.84;;;13.70;100.00
13732;BME280;6937;56.096;12.664;2023-05-23T05:21:42;100932.16;;;13.64;100.00
13732;BME280;6937;56.096;12.664;2023-05-23T05:24:07;100931.66;;;13.59;100.00
13732;BME280;6937;56.096;12.664;2023-05-23T05:26:34;100931.56;;;13.61;100.00
13732;BME280;6937;56.096;12.664;2023-05-23T05:29:00;100936.53;;;13.65;100.00
13732;BME280;6937;56.096;12.664;2023-05-23T05:31:26;100939.56;;;13.72;100.00
13732;BME280;6937;56.096;12.664;2023-05-23T05:33:51;100945.41;;;13.77;100.00
13732;BME280;6937;56.096;12.664;2023-05-23T05:36:18;100936.44;;;13.87;100.00
13732;BME280;6937;56.096;12.664;2023-05-23T05:38:44;100945.00;;;13.92;100.00
13732;BME280;6937;56.096;12.664;2023-05-23T05:41:09;100941.69;;;13.89;100.00
13732;BME280;6937;56.096;12.664;2023-05-23T05:43:35;100951.09;;;13.94;100.00
13732;BME280;6937;56.096;12.664;2023-05-23T05:46:00;100951.28;;;14.02;100.00
13732;BME280;6937;56.096;12.664;2023-05-23T05:48:26;100948.69;;;14.12;100.00
13732;BME280;6937;56.096;12.664;2023-05-23T05:50:51;100947.19;;;14.19;100.00
13732;BME280;6937;56.096;12.664;2023-05-23T05:53:16;100945.69;;;14.26;100.00
13732;BME280;6937;56.096;12.664;2023-05-23T05:55:42;100930.03;;;14.31;100.00
13732;BME280;6937;56.096;12.664;2023-05-23T05:58:07;100923.19;;;14.38;100.00
13732;BME280;6937;56.096;12.664;2023-05-23T06:00:33;100935.16;;;14.55;100.00
13732;BME280;6937;56.096;12.664;2023-05-23T06:03:05;100933.06;;;14.59;100.00
13732;BME280;6937;56.096;12.664;2023-05-23T06:05:31;100924.75;;;14.62;100.00
13732;BME280;6937;56.096;12.664;2023-05-23T06:07:56;100917.97;;;14.67;100.00
13732;BME280;6937;56.096;12.664;2023-05-23T06:10:22;100920.25;;;14.72;100.00
13732;BME280;6937;56.096;12.664;2023-05-23T06:12:48;100910.94;;;14.76;100.00
13732;BME280;6937;56.096;12.664;2023-05-23T06:15:14;100907.84;;;14.80;100.00
13732;BME280;6937;56.096;12.664;2023-05-23T06:17:40;100912.81;;;14.85;100.00
13732;BME280;6937;56.096;12.664;2023-05-23T06:20:06;100902.09;;;14.94;100.00
13732;BME280;6937;56.096;12.664;2023-05-23T06:22:32;100900.00;;;14.98;100.00
13732;BME280;6937;56.096;12.664;2023-05-23T06:24:58;100907.50;;;15.04;100.00
13732;BME280;6937;56.096;12.664;2023-05-23T06:27:23;100913.34;;;15.09;100.00
13732;BME280;6937;56.096;12.664;2023-05-23T06:29:48;100908.66;;;15.11;100.00
13732;BME280;6937;56.096;12.664;2023-05-23T06:32:14;100906.81;;;15.12;100.00
13732;BME280;6937;56.096;12.664;2023-05-23T06:34:40;100907.69;;;15.12;100.00
13732;BME280;6937;56.096;12.664;2023-05-23T06:37:05;100899.75;;;15.11;100.00
13732;BME280;6937;56.096;12.664;2023-05-23T06:39:30;100895.09;;;15.13;100.00
13732;BME280;6937;56.096;12.664;2023-05-23T06:41:56;100893.09;;;15.15;100.00
13732;BME280;6937;56.096;12.664;2023-05-23T06:44:21;100892.09;;;15.16;100.00
13732;BME280;6937;56.096;12.664;2023-05-23T06:46:47;100885.88;;;15.15;100.00
13732;BME280;6937;56.096;12.664;2023-05-23T06:49:13;100879.63;;;15.15;100.00
13732;BME280;6937;56.096;12.664;2023-05-23T06:51:39;100873.53;;;15.13;100.00
13732;BME280;6937;56.096;12.664;2023-05-23T06:54:04;100863.06;;;15.10;100.00
13732;BME280;6937;56.096;12.664;2023-05-23T06:56:30;100863.91;;;15.10;100.00
13732;BME280;6937;56.096;12.664;2023-05-23T06:58:56;100861.63;;;15.15;100.00
13732;BME280;6937;56.096;12.664;2023-05-23T07:01:21;100870.44;;;15.17;100.00
13732;BME280;6937;56.096;12.664;2023-05-23T07:03:46;100895.09;;;15.22;100.00
13732;BME280;6937;56.096;12.664;2023-05-23T07:06:12;100891.53;;;15.12;100.00
13732;BME280;6937;56.096;12.664;2023-05-23T07:08:38;100892.97;;;15.16;100.00
13732;BME280;6937;56.096;12.664;2023-05-23T07:11:04;100888.44;;;15.17;100.00
13732;BME280;6937;56.096;12.664;2023-05-23T07:13:30;100888.72;;;15.23;100.00
13732;BME280;6937;56.096;12.664;2023-05-23T07:15:56;100889.59;;;15.24;100.00
13732;BME280;6937;56.096;12.664;2023-05-23T07:18:22;100894.22;;;15.03;100.00
13732;BME280;6937;56.096;12.664;2023-05-23T07:20:47;100895.00;;;14.93;100.00
13732;BME280;6937;56.096;12.664;2023-05-23T07:23:13;100897.50;;;14.85;100.00
13732;BME280;6937;56.096;12.664;2023-05-23T07:25:38;100898.00;;;14.70;100.00
13732;BME280;6937;56.096;12.664;2023-05-23T07:28:06;100893.22;;;14.43;100.00
13732;BME280;6937;56.096;12.664;2023-05-23T07:30:32;100896.72;;;14.43;100.00
13732;BME280;6937;56.096;12.664;2023-05-23T07:32:57;100906.81;;;14.30;100.00
13732;BME280;6937;56.096;12.664;2023-05-23T07:35:22;100897.91;;;14.09;100.00
13732;BME280;6937;56.096;12.664;2023-05-23T07:37:51;100892.38;;;14.11;100.00
13732;BME280;6937;56.096;12.664;2023-05-23T07:40:17;100886.88;;;14.12;100.00
13732;BME280;6937;56.096;12.664;2023-05-23T07:42:42;100873.50;;;14.01;100.00
13732;BME280;6937;56.096;12.664;2023-05-23T07:45:08;100883.88;;;14.06;100.00
13732;BME280;6937;56.096;12.664;2023-05-23T07:47:33;100880.53;;;14.13;100.00
13732;BME280;6937;56.096;12.664;2023-05-23T07:49:59;100872.50;;;14.23;100.00
13732;BME280;6937;56.096;12.664;2023-05-23T07:52:28;100868.53;;;14.38;100.00
13732;BME280;6937;56.096;12.664;2023-05-23T07:54:53;100877.13;;;14.32;100.00
13732;BME280;6937;56.096;12.664;2023-05-23T07:57:18;100878.72;;;14.34;100.00
13732;BME280;6937;56.096;12.664;2023-05-23T07:59:44;100877.13;;;14.52;100.00
13732;BME280;6937;56.096;12.664;2023-05-23T08:02:09;100879.69;;;14.54;100.00
13732;BME280;6937;56.096;12.664;2023-05-23T08:04:35;100881.31;;;14.45;100.00
13732;BME280;6937;56.096;12.664;2023-05-23T08:07:00;100888.56;;;14.34;100.00
13732;BME280;6937;56.096;12.664;2023-05-23T08:09:26;100887.13;;;14.30;100.00
13732;BME280;6937;56.096;12.664;2023-05-23T08:11:51;100894.50;;;14.28;100.00
13732;BME280;6937;56.096;12.664;2023-05-23T08:14:17;100893.31;;;14.21;100.00
13732;BME280;6937;56.096;12.664;2023-05-23T08:16:42;100896.00;;;14.21;100.00
13732;BME280;6937;56.096;12.664;2023-05-23T08:19:07;100891.88;;;14.17;100.00
13732;BME280;6937;56.096;12.664;2023-05-23T08:21:35;100878.56;;;14.15;100.00
13732;BME280;6937;56.096;12.664;2023-05-23T08:24:00;100878.09;;;14.10;100.00
13732;BME280;6937;56.096;12.664;2023-05-23T08:26:26;100882.28;;;14.03;100.00
13732;BME280;6937;56.096;12.664;2023-05-23T08:28:54;100883.50;;;13.99;100.00
13732;BME280;6937;56.096;12.664;2023-05-23T08:31:20;100880.59;;;14.02;100.00
13732;BME280;6937;56.096;12.664;2023-05-23T08:33:45;100866.16;;;14.24;100.00
13732;BME280;6937;56.096;12.664;2023-05-23T08:36:11;100860.34;;;14.39;100.00
13732;BME280;6937;56.096;12.664;2023-05-23T08:38:36;100856.59;;;14.31;100.00
13732;BME280;6937;56.096;12.664;2023-05-23T08:41:04;100840.09;;;14.35;100.00
13732;BME280;6937;56.096;12.664;2023-05-23T08:43:33;100849.31;;;14.42;100.00
13732;BME280;6937;56.096;12.664;2023-05-23T08:45:58;100860.78;;;14.44;100.00
13732;BME280;6937;56.096;12.664;2023-05-23T08:48:25;100868.53;;;14.38;100.00
13732;BME280;6937;56.096;12.664;2023-05-23T08:50:51;100854.38;;;14.36;100.00
13732;BME280;6937;56.096;12.664;2023-05-23T08:53:18;100844.53;;;14.46;100.00
13732;BME280;6937;56.096;12.664;2023-05-23T08:55:46;100853.56;;;14.45;100.00
13732;BME280;6937;56.096;12.664;2023-05-23T08:58:13;100863.53;;;14.33;100.00
13732;BME280;6937;56.096;12.664;2023-05-23T09:00:41;100842.25;;;14.41;100.00
13732;BME280;6937;56.096;12.664;2023-05-23T09:03:08;100832.28;;;14.63;100.00
13732;BME280;6937;56.096;12.664;2023-05-23T09:05:36;100832.34;;;14.82;100.00
13732;BME280;6937;56.096;12.664;2023-05-23T09:08:01;100822.63;;;15.00;100.00
13732;BME280;6937;56.096;12.664;2023-05-23T09:10:27;100821.94;;;15.08;100.00
13732;BME280;6937;56.096;12.664;2023-05-23T09:12:54;100818.69;;;15.04;100.00
13732;BME280;6937;56.096;12.664;2023-05-23T09:15:19;100811.63;;;15.13;100.00
13732;BME280;6937;56.096;12.664;2023-05-23T09:17:46;100811.91;;;15.19;100.00
13732;BME280;6937;56.096;12.664;2023-05-23T09:20:14;100799.16;;;15.31;100.00
13732;BME280;6937;56.096;12.664;2023-05-23T09:22:40;100792.66;;;15.43;100.00
13732;BME280;6937;56.096;12.664;2023-05-23T09:25:09;100796.41;;;15.52;100.00
13732;BME280;6937;56.096;12.664;2023-05-23T09:27:35;100790.56;;;15.56;100.00
13732;BME280;6937;56.096;12.664;2023-05-23T09:30:10;100776.97;;;15.58;100.00
13732;BME280;6937;56.096;12.664;2023-05-23T09:32:36;100791.44;;;15.66;100.00
13732;BME280;6937;56.096;12.664;2023-05-23T09:35:06;100796.22;;;15.72;100.00
13732;BME280;6937;56.096;12.664;2023-05-23T09:37:33;100804.19;;;15.74;100.00
13732;BME280;6937;56.096;12.664;2023-05-23T09:40:00;100804.88;;;15.76;100.00
13732;BME280;6937;56.096;12.664;2023-05-23T09:42:31;100803.72;;;15.78;100.00
13732;BME280;6937;56.096;12.664;2023-05-23T09:44:58;100831.28;;;15.82;100.00
13732;BME280;6937;56.096;12.664;2023-05-23T09:47:23;100835.94;;;15.80;100.00
13732;BME280;6937;56.096;12.664;2023-05-23T09:49:49;100851.97;;;15.81;100.00
13732;BME280;6937;56.096;12.664;2023-05-23T09:52:15;100850.84;;;15.84;100.00
13732;BME280;6937;56.096;12.664;2023-05-23T09:54:42;100846.00;;;15.87;100.00
13732;BME280;6937;56.096;12.664;2023-05-23T09:57:09;100850.00;;;15.93;100.00
13732;BME280;6937;56.096;12.664;2023-05-23T09:59:39;100854.94;;;15.98;100.00
13732;BME280;6937;56.096;12.664;2023-05-23T10:02:11;100854.66;;;16.01;100.00
13732;BME280;6937;56.096;12.664;2023-05-23T10:04:38;100861.75;;;16.02;100.00
13732;BME280;6937;56.096;12.664;2023-05-23T10:07:27;100867.28;;;15.90;100.00
13732;BME280;6937;56.096;12.664;2023-05-23T10:09:55;100883.63;;;15.89;100.00
13732;BME280;6937;56.096;12.664;2023-05-23T10:12:44;100889.69;;;15.91;100.00
13732;BME280;6937;56.096;12.664;2023-05-23T10:15:13;100906.16;;;15.88;100.00
13732;BME280;6937;56.096;12.664;2023-05-23T10:18:04;100900.78;;;15.88;100.00
13732;BME280;6937;56.096;12.664;2023-05-23T10:20:32;100905.69;;;15.64;100.00
13732;BME280;6937;56.096;12.664;2023-05-23T10:23:01;100904.72;;;15.55;100.00
13732;BME280;6937;56.096;12.664;2023-05-23T10:25:27;100907.34;;;15.45;100.00
13732;BME280;6937;56.096;12.664;2023-05-23T10:27:57;100884.47;;;15.21;100.00
13732;BME280;6937;56.096;12.664;2023-05-23T10:30:27;100882.09;;;14.87;100.00
13732;BME280;6937;56.096;12.664;2023-05-23T10:32:56;100865.03;;;14.68;100.00
13732;BME280;6937;56.096;12.664;2023-05-23T10:38:22;100831.03;;;14.67;100.00
13732;BME280;6937;56.096;12.664;2023-05-23T10:41:00;100815.13;;;14.54;100.00
13732;BME280;6937;56.096;12.664;2023-05-23T10:46:20;100783.00;;;14.62;100.00
13732;BME280;6937;56.096;12.664;2023-05-23T10:48:53;100764.59;;;14.58;100.00
13732;BME280;6937;56.096;12.664;2023-05-23T10:51:21;100769.94;;;14.48;100.00
13732;BME280;6937;56.096;12.664;2023-05-23T10:53:52;100760.88;;;14.39;100.00
13732;BME280;6937;56.096;12.664;2023-05-23T10:56:20;100787.88;;;14.38;100.00
13732;BME280;6937;56.096;12.664;2023-05-23T10:58:53;100847.03;;;14.38;100.00
13732;BME280;6937;56.096;12.664;2023-05-23T11:01:19;100874.66;;;14.29;100.00
13732;BME280;6937;56.096;12.664;2023-05-23T11:06:43;100889.78;;;14.20;100.00
13732;BME280;6937;56.096;12.664;2023-05-23T11:09:16;100887.00;;;14.11;100.00
13732;BME280;6937;56.096;12.664;2023-05-23T11:14:14;100918.41;;;14.10;100.00
13732;BME280;6937;56.096;12.664;2023-05-23T11:16:42;100918.53;;;14.09;100.00
13732;BME280;6937;56.096;12.664;2023-05-23T11:24:15;100975.03;;;13.97;100.00
13732;BME280;6937;56.096;12.664;2023-05-23T11:26:51;101015.44;;;13.96;100.00
13732;BME280;6937;56.096;12.664;2023-05-23T11:29:19;101109.03;;;14.02;100.00
13732;BME280;6937;56.096;12.664;2023-05-23T11:31:44;100931.25;;;14.07;100.00
13732;BME280;6937;56.096;12.664;2023-05-23T11:34:10;100900.91;;;14.16;100.00
13732;BME280;6937;56.096;12.664;2023-05-23T11:36:36;100902.78;;;14.25;100.00
13732;BME280;6937;56.096;12.664;2023-05-23T11:39:02;100900.38;;;14.22;100.00
13732;BME280;6937;56.096;12.664;2023-05-23T11:41:29;100904.31;;;14.18;100.00
13732;BME280;6937;56.096;12.664;2023-05-23T11:43:54;100898.13;;;14.06;100.00
13732;BME280;6937;56.096;12.664;2023-05-23T11:46:20;100900.22;;;14.02;100.00
13732;BME280;6937;56.096;12.664;2023-05-23T11:48:47;100905.88;;;13.99;100.00
13732;BME280;6937;56.096;12.664;2023-05-23T11:51:13;100892.44;;;13.99;100.00
13732;BME280;6937;56.096;12.664;2023-05-23T11:53:39;100904.16;;;13.98;100.00
13732;BME280;6937;56.096;12.664;2023-05-23T11:56:05;100901.09;;;14.03;100.00
13732;BME280;6937;56.096;12.664;2023-05-23T11:58:35;100900.50;;;13.99;100.00
13732;BME280;6937;56.096;12.664;2023-05-23T12:01:06;100888.03;;;13.98;100.00
13732;BME280;6937;56.096;12.664;2023-05-23T12:03:49;100895.97;;;14.00;100.00
13732;BME280;6937;56.096;12.664;2023-05-23T12:06:17;100905.09;;;14.09;100.00
13732;BME280;6937;56.096;12.664;2023-05-23T12:08:43;100906.81;;;14.10;100.00
13732;BME280;6937;56.096;12.664;2023-05-23T12:11:08;100911.34;;;14.09;100.00
13732;BME280;6937;56.096;12.664;2023-05-23T12:13:34;100908.13;;;14.15;100.00
13732;BME280;6937;56.096;12.664;2023-05-23T12:16:01;100896.66;;;14.13;100.00
13732;BME280;6937;56.096;12.664;2023-05-23T12:18:28;100901.63;;;14.18;100.00
13732;BME280;6937;56.096;12.664;2023-05-23T12:20:54;100908.00;;;14.17;100.00
13732;BME280;6937;56.096;12.664;2023-05-23T12:23:21;100892.97;;;14.14;100.00
13732;BME280;6937;56.096;12.664;2023-05-23T12:25:53;100890.28;;;14.14;100.00
13732;BME280;6937;56.096;12.664;2023-05-23T12:28:20;100903.88;;;14.13;100.00
13732;BME280;6937;56.096;12.664;2023-05-23T12:30:45;100910.34;;;14.10;100.00
13732;BME280;6937;56.096;12.664;2023-05-23T12:33:11;100901.69;;;14.07;100.00
13732;BME280;6937;56.096;12.664;2023-05-23T12:35:42;100883.59;;;14.09;100.00
13732;BME280;6937;56.096;12.664;2023-05-23T12:38:07;100878.66;;;14.14;100.00
13732;BME280;6937;56.096;12.664;2023-05-23T12:40:34;100886.81;;;14.23;100.00
13732;BME280;6937;56.096;12.664;2023-05-23T12:43:00;100893.91;;;14.24;100.00
13732;BME280;6937;56.096;12.664;2023-05-23T12:45:33;100884.59;;;14.28;100.00
13732;BME280;6937;56.096;12.664;2023-05-23T12:47:59;100883.38;;;14.21;100.00
13732;BME280;6937;56.096;12.664;2023-05-23T12:50:25;100888.97;;;14.09;100.00
13732;BME280;6937;56.096;12.664;2023-05-23T12:52:50;100879.38;;;13.95;100.00
13732;BME280;6937;56.096;12.664;2023-05-23T12:55:16;100892.22;;;13.91;100.00
13732;BME280;6937;56.096;12.664;2023-05-23T12:57:42;100903.16;;;13.79;100.00
13732;BME280;6937;56.096;12.664;2023-05-23T13:00:09;100890.16;;;13.63;100.00
13732;BME280;6937;56.096;12.664;2023-05-23T13:02:34;100908.97;;;13.52;100.00